Wellington, MO (64097)

2:01 AM CST on December 11, 2019 (GMT -0600)
Linn Grove Road | | Change Station
Active Advisory: Flood Warning

Elev 873 ft 39.05 °N, 93.92 °W | Updated 13 seconds ago

Clear
Clear
21.2 °F
Feels Like 21 °F
N
2.2
Wind Variable Wind from SSW
Gusts 3.4 mph

Today
High -- | Low -- °F
--% Chance of Precip.
Yesterday
High -- | Low -- °F
Precip. -- in
Pressure 30.36 in
Visibility 10.0 miles
Clouds Clear
Windchill 21 °F
Dew Point 16 °F
Humidity 79%
Rainfall 0.00 in
Snow Depth Not available.
7:24 AM 4:53 PM
Waxing Gibbous, 99% visible
METAR KGPH 110735Z AUTO 00000KT 10SM CLR M07/M09 A3036 RMK AO2
Pressure 30.36 in
Visibility 10.0 miles
Clouds Clear
Windchill 21 °F
Dew Point 16 °F
Humidity 79%
Rainfall 0.00 in
Snow Depth Not available.
7:24 AM 4:53 PM
Waxing Gibbous, 99% visible
METAR KGPH 110735Z AUTO 00000KT 10SM CLR M07/M09 A3036 RMK AO2

Get Your Daily Forecast Email!

Thanks for signing up!

Be on the lookout for a verification email in your inbox.

You'll start receiving severe weather alerts in your inbox..

×

10-Day Weather Forecast

Almanac

Astronomy

Dec. 11, 2019 Rise Set
Actual Time
Civil Twilight
Nautical Twilight
Astronomical Twilight
Moon
Length of Visible Light
Length of Day
Tomorrow will be .
, % of the Moon is Illuminated

Today's Extremes

State Highs State Lows

Community

WunderPhotos

Category 6

Welcome to Category 6. This is the collective home for Weather Underground's featured writeups by Dr. Jeff Masters (right), Bob Henson (left), Chris Burt, and other regular contributors.

Nearby

Air Quality

  Air Quality AQ Index Pollutant
Not available.

Snow Depth

Station Depth Elevation

Earthquake Activity

City Distance Mag. Time & Date
Minimum magnitude displayed is 2.5.

Coastal Water Temperatures

Place Temperature

Stations

Nearby Weather Stations

Station Location Temp. Windchill Dew Point Humidity Wind Precip. Elev Updated Type
                   

Watches & Warnings

Flood Warning
Issued: 9:33 PM CST Dec. 10, 2019 – National Weather Service

The Flood Warning continues for
the Missouri River at Waverly.
* Until Wednesday evening.
* At 8:30 PM Tuesday the stage was 20.0 feet.
* Flood stage is 20.0 feet.
* Minor flooding is occurring.
* Forecast... the river will continue to fall to below flood stage by
early tomorrow evening.

                       Latest
location fs stage day/time forecast

Missouri River
Waverly 20 20.0 Tue 08 PM 19.9 early Wednesday
morning


lat... Lon 3925 9386 3933 9331 3928 9327 3922 9330 3918 9384